BAW36A EGKK-LTFM
Flight info
| Callsign | BAW36A |
|---|---|
| Flight time | N/A |
| Altitude | 23000 |
| Route | MIMFO Y312 DVR L9 KONAN/N0476F390 UL607 KOK DCT REMBA DCT MATUG DCT BOMBI DCT TENLO DCT LAMSI DCT ARSIN DCT GITAS DCT MAVIR DCT GOVIN DCT PADGU DCT TIMUR L606 GASRU DCT RILEX |
| Aircraft | B772/H-SDE2E3FGHIJ5LORVWXY/LB1D1 |
Departure
| Time | 2026-04-15 12:38 |
|---|---|
| Airport | London Gatwick Airport (EGKK) |
Arrival
| Time | N/A |
|---|---|
| Airport | İstanbul Airport (LTFM) |
| Time | Latitude | Longitude | Altitude | Speed | Heading |
|---|---|---|---|---|---|
| 2026-04-15 12:16 | 51.15805 | -0.16998 | 211 ft | 0 kts | 70° |
| 2026-04-15 12:22 | 51.15814 | -0.16954 | 218 ft | 0 kts | 70° |
| 2026-04-15 12:26 | 51.15811 | -0.16967 | 220 ft | 3 kts | 69° |
| 2026-04-15 12:26 | 51.15804 | -0.16997 | 212 ft | 3 kts | 65° |
| 2026-04-15 12:27 | 51.15797 | -0.17019 | 222 ft | 2 kts | 68° |
| 2026-04-15 12:27 | 51.15792 | -0.17047 | 221 ft | 3 kts | 90° |
| 2026-04-15 12:27 | 51.15795 | -0.17072 | 224 ft | 3 kts | 138° |
| 2026-04-15 12:27 | 51.15812 | -0.17087 | 220 ft | 3 kts | 168° |
| 2026-04-15 12:28 | 51.15817 | -0.17088 | 219 ft | 0 kts | 171° |
| 2026-04-15 12:30 | 51.15794 | -0.17080 | 211 ft | 7 kts | 167° |
| 2026-04-15 12:30 | 51.15745 | -0.17062 | 217 ft | 7 kts | 168° |
| 2026-04-15 12:31 | 51.15691 | -0.17044 | 216 ft | 8 kts | 168° |
| 2026-04-15 12:31 | 51.15641 | -0.17068 | 218 ft | 8 kts | 240° |
| 2026-04-15 12:31 | 51.15627 | -0.17157 | 213 ft | 8 kts | 257° |
| 2026-04-15 12:31 | 51.15615 | -0.17246 | 216 ft | 8 kts | 256° |
| 2026-04-15 12:32 | 51.15600 | -0.17339 | 215 ft | 9 kts | 256° |
| 2026-04-15 12:32 | 51.15582 | -0.17429 | 215 ft | 9 kts | 237° |
| 2026-04-15 12:32 | 51.15527 | -0.17438 | 215 ft | 9 kts | 166° |
| 2026-04-15 12:32 | 51.15462 | -0.17413 | 209 ft | 11 kts | 167° |
| 2026-04-15 12:33 | 51.15385 | -0.17386 | 214 ft | 11 kts | 167° |
| 2026-04-15 12:33 | 51.15308 | -0.17359 | 214 ft | 11 kts | 167° |
| 2026-04-15 12:33 | 51.15248 | -0.17304 | 219 ft | 10 kts | 117° |
| 2026-04-15 12:33 | 51.15253 | -0.17195 | 215 ft | 10 kts | 78° |
| 2026-04-15 12:34 | 51.15267 | -0.17087 | 215 ft | 10 kts | 78° |
| 2026-04-15 12:34 | 51.15281 | -0.16979 | 212 ft | 10 kts | 77° |
| 2026-04-15 12:34 | 51.15295 | -0.16876 | 215 ft | 8 kts | 86° |
| 2026-04-15 12:34 | 51.15281 | -0.16841 | 219 ft | 0 kts | 140° |
| 2026-04-15 12:37 | 51.15261 | -0.16826 | 219 ft | 6 kts | 161° |
| 2026-04-15 12:37 | 51.15218 | -0.16809 | 218 ft | 7 kts | 167° |
| 2026-04-15 12:37 | 51.15171 | -0.16800 | 217 ft | 7 kts | 183° |
| 2026-04-15 12:37 | 51.15111 | -0.16896 | 218 ft | 21 kts | 252° |
| 2026-04-15 12:38 | 51.15044 | -0.17373 | 219 ft | 77 kts | 257° |
| 2026-04-15 12:38 | 51.14883 | -0.18551 | 219 ft | 139 kts | 257° |
| 2026-04-15 12:38 | 51.14660 | -0.20267 | 424 ft | 168 kts | 255° |
| 2026-04-15 12:38 | 51.14427 | -0.22091 | 1171 ft | 168 kts | 253° |
| 2026-04-15 12:39 | 51.14192 | -0.23888 | 2137 ft | 163 kts | 253° |
| 2026-04-15 12:39 | 51.13937 | -0.25775 | 2504 ft | 186 kts | 252° |
| 2026-04-15 12:39 | 51.13711 | -0.27885 | 2805 ft | 203 kts | 264° |
| 2026-04-15 12:39 | 51.14070 | -0.30148 | 3265 ft | 222 kts | 294° |
| 2026-04-15 12:40 | 51.15198 | -0.31939 | 3849 ft | 239 kts | 323° |
| 2026-04-15 12:40 | 51.16817 | -0.32766 | 3891 ft | 254 kts | 352° |
| 2026-04-15 12:40 | 51.18552 | -0.32151 | 3814 ft | 267 kts | 32° |
| 2026-04-15 12:40 | 51.19813 | -0.29901 | 4016 ft | 284 kts | 69° |
| 2026-04-15 12:41 | 51.20164 | -0.26855 | 4429 ft | 281 kts | 94° |
| 2026-04-15 12:41 | 51.20208 | -0.23717 | 4954 ft | 286 kts | 92° |
| 2026-04-15 12:41 | 51.20364 | -0.20529 | 5592 ft | 290 kts | 89° |
| 2026-04-15 12:41 | 51.20680 | -0.17333 | 6269 ft | 293 kts | 84° |
| 2026-04-15 12:42 | 51.21099 | -0.14141 | 6885 ft | 296 kts | 83° |
| 2026-04-15 12:42 | 51.21533 | -0.10948 | 7410 ft | 300 kts | 83° |
| 2026-04-15 12:42 | 51.21974 | -0.07674 | 7958 ft | 303 kts | 83° |
| 2026-04-15 12:42 | 51.22272 | -0.05448 | 8331 ft | 305 kts | 83° |
| 2026-04-15 12:43 | 51.22854 | -0.01049 | 9096 ft | 307 kts | 83° |
| 2026-04-15 12:43 | 51.23150 | 0.01207 | 9313 ft | 310 kts | 83° |
| 2026-04-15 12:43 | 51.23735 | 0.05703 | 9936 ft | 314 kts | 83° |
| 2026-04-15 12:43 | 51.24184 | 0.09182 | 10168 ft | 328 kts | 83° |
| 2026-04-15 12:44 | 51.24652 | 0.12833 | 10279 ft | 345 kts | 83° |
| 2026-04-15 12:44 | 51.24983 | 0.15411 | 10345 ft | 357 kts | 83° |
| 2026-04-15 12:44 | 51.25465 | 0.19381 | 10444 ft | 370 kts | 87° |
| 2026-04-15 12:44 | 51.25445 | 0.23460 | 10550 ft | 376 kts | 103° |
| 2026-04-15 12:45 | 51.25029 | 0.27626 | 11019 ft | 385 kts | 104° |
| 2026-04-15 12:45 | 51.24635 | 0.31899 | 11657 ft | 392 kts | 103° |
| 2026-04-15 12:45 | 51.24282 | 0.36230 | 12479 ft | 395 kts | 103° |
| 2026-04-15 12:45 | 51.23949 | 0.40589 | 13333 ft | 397 kts | 102° |
| 2026-04-15 12:46 | 51.23618 | 0.44997 | 14029 ft | 402 kts | 102° |
| 2026-04-15 12:46 | 51.23280 | 0.49441 | 14641 ft | 406 kts | 102° |
| 2026-04-15 12:46 | 51.22933 | 0.53934 | 15291 ft | 411 kts | 102° |
| 2026-04-15 12:46 | 51.22577 | 0.58475 | 15944 ft | 415 kts | 102° |
| 2026-04-15 12:47 | 51.22217 | 0.63069 | 16607 ft | 419 kts | 102° |
| 2026-04-15 12:47 | 51.21854 | 0.67695 | 17232 ft | 423 kts | 102° |
| 2026-04-15 12:47 | 51.21486 | 0.72370 | 17813 ft | 428 kts | 102° |
| 2026-04-15 12:47 | 51.21110 | 0.77109 | 17871 ft | 431 kts | 102° |
| 2026-04-15 12:48 | 51.20734 | 0.81848 | 17918 ft | 428 kts | 102° |
| 2026-04-15 12:48 | 51.20361 | 0.86547 | 17956 ft | 427 kts | 102° |
| 2026-04-15 12:48 | 51.19985 | 0.91246 | 17991 ft | 427 kts | 103° |
| 2026-04-15 12:48 | 51.19605 | 0.95943 | 18050 ft | 427 kts | 102° |
| 2026-04-15 12:49 | 51.19223 | 1.00643 | 18084 ft | 427 kts | 102° |
| 2026-04-15 12:49 | 51.18839 | 1.05350 | 18086 ft | 428 kts | 102° |
| 2026-04-15 12:49 | 51.18453 | 1.10057 | 18090 ft | 429 kts | 102° |
| 2026-04-15 12:49 | 51.18064 | 1.14768 | 18094 ft | 429 kts | 102° |
| 2026-04-15 12:50 | 51.17673 | 1.19491 | 18095 ft | 430 kts | 102° |
| 2026-04-15 12:50 | 51.17281 | 1.24215 | 18094 ft | 430 kts | 102° |
| 2026-04-15 12:50 | 51.16885 | 1.28953 | 18097 ft | 431 kts | 102° |
| 2026-04-15 12:50 | 51.16487 | 1.33686 | 18089 ft | 432 kts | 102° |
| 2026-04-15 12:51 | 51.16146 | 1.38434 | 18080 ft | 432 kts | 99° |
| 2026-04-15 12:51 | 51.15910 | 1.43202 | 18059 ft | 432 kts | 98° |
| 2026-04-15 12:51 | 51.15691 | 1.47976 | 18086 ft | 431 kts | 98° |
| 2026-04-15 12:51 | 51.15475 | 1.52726 | 18092 ft | 430 kts | 98° |
| 2026-04-15 12:52 | 51.15253 | 1.57483 | 18084 ft | 430 kts | 98° |
| 2026-04-15 12:52 | 51.15024 | 1.62237 | 18087 ft | 430 kts | 98° |
| 2026-04-15 12:52 | 51.14790 | 1.66989 | 18088 ft | 430 kts | 99° |
| 2026-04-15 12:52 | 51.14554 | 1.71728 | 18101 ft | 430 kts | 99° |
| 2026-04-15 12:53 | 51.14314 | 1.76476 | 18100 ft | 430 kts | 99° |
| 2026-04-15 12:53 | 51.14075 | 1.81169 | 18098 ft | 431 kts | 99° |
| 2026-04-15 12:53 | 51.13831 | 1.85924 | 18095 ft | 431 kts | 99° |
| 2026-04-15 12:53 | 51.13587 | 1.90673 | 18072 ft | 431 kts | 98° |
| 2026-04-15 12:54 | 51.13340 | 1.95425 | 18096 ft | 431 kts | 98° |
| 2026-04-15 12:54 | 51.13091 | 2.00176 | 18101 ft | 431 kts | 98° |
| 2026-04-15 12:54 | 51.12840 | 2.04931 | 18102 ft | 432 kts | 98° |
| 2026-04-15 12:54 | 51.12586 | 2.09693 | 18108 ft | 432 kts | 98° |
| 2026-04-15 12:55 | 51.12330 | 2.14471 | 18113 ft | 433 kts | 98° |
| 2026-04-15 12:55 | 51.12072 | 2.19245 | 18109 ft | 433 kts | 98° |
| 2026-04-15 12:55 | 51.11814 | 2.24019 | 18105 ft | 433 kts | 98° |
| 2026-04-15 12:55 | 51.11553 | 2.28796 | 18110 ft | 433 kts | 98° |
| 2026-04-15 12:56 | 51.11290 | 2.33572 | 18111 ft | 433 kts | 98° |
| 2026-04-15 12:56 | 51.11025 | 2.38340 | 18094 ft | 433 kts | 98° |
| 2026-04-15 12:56 | 51.10759 | 2.43110 | 18101 ft | 432 kts | 98° |
| 2026-04-15 12:56 | 51.10491 | 2.47872 | 18116 ft | 432 kts | 98° |
| 2026-04-15 12:57 | 51.10223 | 2.52624 | 18115 ft | 431 kts | 98° |
| 2026-04-15 12:57 | 51.09952 | 2.57372 | 18121 ft | 431 kts | 98° |
| 2026-04-15 12:57 | 51.09676 | 2.62125 | 18124 ft | 431 kts | 99° |
| 2026-04-15 12:57 | 51.09233 | 2.66823 | 18116 ft | 428 kts | 105° |
| 2026-04-15 12:58 | 51.08463 | 2.71371 | 18122 ft | 425 kts | 110° |
| 2026-04-15 12:58 | 51.07618 | 2.75882 | 18125 ft | 425 kts | 110° |
| 2026-04-15 12:58 | 51.06787 | 2.80335 | 18132 ft | 426 kts | 110° |
| 2026-04-15 12:58 | 51.05950 | 2.84851 | 18113 ft | 426 kts | 109° |
| 2026-04-15 12:59 | 51.04283 | 2.93907 | 18142 ft | 428 kts | 109° |
| 2026-04-15 12:59 | 51.03449 | 2.98448 | 18115 ft | 429 kts | 109° |
| 2026-04-15 12:59 | 51.02614 | 3.02995 | 18125 ft | 429 kts | 109° |
| 2026-04-15 13:00 | 51.01778 | 3.07542 | 18136 ft | 429 kts | 109° |
| 2026-04-15 13:00 | 51.00938 | 3.12101 | 18117 ft | 429 kts | 109° |
| 2026-04-15 13:00 | 51.00101 | 3.16627 | 18137 ft | 428 kts | 109° |
| 2026-04-15 13:00 | 50.99259 | 3.21167 | 18134 ft | 428 kts | 109° |
| 2026-04-15 13:01 | 50.98419 | 3.25689 | 18122 ft | 427 kts | 109° |
| 2026-04-15 13:01 | 50.97577 | 3.30208 | 18126 ft | 427 kts | 109° |
| 2026-04-15 13:01 | 50.96733 | 3.34725 | 18123 ft | 427 kts | 109° |
| 2026-04-15 13:01 | 50.95888 | 3.39239 | 18127 ft | 427 kts | 109° |
| 2026-04-15 13:02 | 50.95041 | 3.43752 | 18135 ft | 427 kts | 109° |
| 2026-04-15 13:02 | 50.94193 | 3.48263 | 18134 ft | 427 kts | 109° |
| 2026-04-15 13:02 | 50.93342 | 3.52776 | 18129 ft | 427 kts | 109° |
| 2026-04-15 13:02 | 50.92492 | 3.57276 | 18133 ft | 427 kts | 109° |
| 2026-04-15 13:03 | 50.91638 | 3.61781 | 18137 ft | 427 kts | 109° |
| 2026-04-15 13:03 | 50.90784 | 3.66281 | 18144 ft | 427 kts | 109° |
| 2026-04-15 13:03 | 50.89927 | 3.70781 | 18142 ft | 427 kts | 109° |
| 2026-04-15 13:03 | 50.89068 | 3.75281 | 18143 ft | 427 kts | 109° |
| 2026-04-15 13:04 | 50.88206 | 3.79788 | 18146 ft | 427 kts | 109° |
| 2026-04-15 13:04 | 50.87341 | 3.84294 | 18153 ft | 428 kts | 109° |
| 2026-04-15 13:04 | 50.86475 | 3.88799 | 18150 ft | 428 kts | 109° |
| 2026-04-15 13:04 | 50.85607 | 3.93305 | 18152 ft | 428 kts | 109° |
| 2026-04-15 13:05 | 50.84737 | 3.97812 | 18162 ft | 429 kts | 109° |
| 2026-04-15 13:05 | 50.83859 | 4.02340 | 18658 ft | 432 kts | 109° |
| 2026-04-15 13:05 | 50.82987 | 4.06832 | 19227 ft | 433 kts | 109° |
| 2026-04-15 13:05 | 50.82092 | 4.11440 | 19772 ft | 435 kts | 109° |
| 2026-04-15 13:06 | 50.81207 | 4.15979 | 20239 ft | 439 kts | 109° |
| 2026-04-15 13:06 | 50.80302 | 4.20609 | 20727 ft | 442 kts | 109° |
| 2026-04-15 13:06 | 50.79376 | 4.25332 | 21210 ft | 445 kts | 109° |
| 2026-04-15 13:06 | 50.78455 | 4.30026 | 21676 ft | 448 kts | 109° |
| 2026-04-15 13:07 | 50.77525 | 4.34745 | 22150 ft | 452 kts | 109° |
| 2026-04-15 13:07 | 50.76587 | 4.39498 | 22608 ft | 455 kts | 110° |
| 2026-04-15 13:07 | 50.75642 | 4.44276 | 23071 ft | 458 kts | 110° |
| 2026-04-15 13:07 | 50.74689 | 4.49084 | 23531 ft | 461 kts | 110° |
| 2026-04-15 13:08 | 50.73738 | 4.53867 | 23944 ft | 464 kts | 110° |
| 2026-04-15 13:08 | 50.72755 | 4.58798 | 24314 ft | 466 kts | 110° |
| 2026-04-15 13:08 | 50.71777 | 4.63698 | 24699 ft | 469 kts | 110° |
| 2026-04-15 13:08 | 50.70806 | 4.68547 | 25063 ft | 471 kts | 109° |
| 2026-04-15 13:09 | 50.69814 | 4.73489 | 25430 ft | 474 kts | 109° |
| 2026-04-15 13:09 | 50.68815 | 4.78457 | 25781 ft | 477 kts | 109° |
| 2026-04-15 13:09 | 50.67809 | 4.83452 | 26131 ft | 479 kts | 109° |
| 2026-04-15 13:09 | 50.66796 | 4.88461 | 26487 ft | 482 kts | 110° |
| 2026-04-15 13:10 | 50.65814 | 4.93545 | 26839 ft | 485 kts | 107° |
| 2026-04-15 13:10 | 50.64959 | 4.98700 | 27182 ft | 488 kts | 106° |
| 2026-04-15 13:10 | 50.64124 | 5.03901 | 27520 ft | 491 kts | 106° |
| 2026-04-15 13:10 | 50.63291 | 5.09126 | 27846 ft | 493 kts | 106° |
| 2026-04-15 13:11 | 50.62448 | 5.14384 | 28169 ft | 496 kts | 105° |
| 2026-04-15 13:11 | 50.61595 | 5.19659 | 28440 ft | 500 kts | 105° |
| 2026-04-15 13:11 | 50.60727 | 5.24983 | 28723 ft | 503 kts | 105° |
| 2026-04-15 13:11 | 50.59851 | 5.30318 | 29025 ft | 505 kts | 106° |
| 2026-04-15 13:12 | 50.58967 | 5.35668 | 29323 ft | 507 kts | 106° |
| 2026-04-15 13:12 | 50.58075 | 5.41046 | 29611 ft | 509 kts | 106° |
| 2026-04-15 13:12 | 50.57177 | 5.46443 | 29840 ft | 511 kts | 106° |
| 2026-04-15 13:12 | 50.56272 | 5.51865 | 30100 ft | 513 kts | 106° |
| 2026-04-15 13:13 | 50.55362 | 5.57300 | 30343 ft | 515 kts | 106° |
| 2026-04-15 13:13 | 50.54447 | 5.62753 | 30573 ft | 516 kts | 105° |
| 2026-04-15 13:13 | 50.53529 | 5.68208 | 30861 ft | 515 kts | 105° |
| 2026-04-15 13:13 | 50.52612 | 5.73637 | 31186 ft | 514 kts | 106° |
| 2026-04-15 13:14 | 50.51692 | 5.79068 | 31496 ft | 513 kts | 106° |
| 2026-04-15 13:14 | 50.50773 | 5.84479 | 31791 ft | 513 kts | 106° |
| 2026-04-15 13:14 | 50.49849 | 5.89898 | 32075 ft | 513 kts | 106° |
| 2026-04-15 13:14 | 50.48925 | 5.95301 | 32400 ft | 512 kts | 106° |
| 2026-04-15 13:15 | 50.48000 | 6.00692 | 32696 ft | 511 kts | 106° |
| 2026-04-15 13:15 | 50.47072 | 6.06084 | 32986 ft | 511 kts | 105° |
| 2026-04-15 13:15 | 50.46144 | 6.11462 | 33307 ft | 510 kts | 105° |
| 2026-04-15 13:15 | 50.45215 | 6.16831 | 33621 ft | 509 kts | 105° |
| 2026-04-15 13:16 | 50.44297 | 6.22121 | 33919 ft | 509 kts | 105° |
| 2026-04-15 13:16 | 50.43367 | 6.27465 | 34205 ft | 508 kts | 105° |
| 2026-04-15 13:16 | 50.42434 | 6.32812 | 34457 ft | 508 kts | 105° |
| 2026-04-15 13:16 | 50.41518 | 6.38169 | 34701 ft | 508 kts | 104° |
| 2026-04-15 13:17 | 50.40735 | 6.43564 | 34935 ft | 508 kts | 102° |
| 2026-04-15 13:17 | 50.39991 | 6.48982 | 35143 ft | 508 kts | 102° |
| 2026-04-15 13:17 | 50.39260 | 6.54391 | 35385 ft | 508 kts | 102° |
| 2026-04-15 13:17 | 50.38530 | 6.59800 | 35633 ft | 507 kts | 102° |
| 2026-04-15 13:18 | 50.37795 | 6.65192 | 35882 ft | 506 kts | 102° |
| 2026-04-15 13:18 | 50.37050 | 6.70594 | 36131 ft | 506 kts | 102° |
| 2026-04-15 13:18 | 50.36301 | 6.75971 | 36355 ft | 506 kts | 102° |
| 2026-04-15 13:18 | 50.35545 | 6.81356 | 36576 ft | 505 kts | 102° |
| 2026-04-15 13:19 | 50.34787 | 6.86723 | 36808 ft | 505 kts | 102° |
| 2026-04-15 13:19 | 50.34051 | 6.91917 | 37028 ft | 505 kts | 102° |
| 2026-04-15 13:19 | 50.33290 | 6.97273 | 37173 ft | 504 kts | 102° |
| 2026-04-15 13:19 | 50.32525 | 7.02633 | 37193 ft | 506 kts | 102° |
| 2026-04-15 13:20 | 50.30980 | 7.13401 | 37210 ft | 506 kts | 102° |
| 2026-04-15 13:20 | 50.29433 | 7.24115 | 37206 ft | 504 kts | 102° |
| 2026-04-15 13:21 | 50.27883 | 7.34778 | 37204 ft | 503 kts | 102° |
| 2026-04-15 13:21 | 50.26324 | 7.45428 | 37210 ft | 502 kts | 101° |
| 2026-04-15 13:22 | 50.24759 | 7.56052 | 37208 ft | 502 kts | 101° |
| 2026-04-15 13:22 | 50.23184 | 7.66671 | 37213 ft | 502 kts | 101° |
| 2026-04-15 13:23 | 50.21598 | 7.77287 | 37214 ft | 502 kts | 102° |
| 2026-04-15 13:23 | 50.20001 | 7.87898 | 37227 ft | 502 kts | 101° |
| 2026-04-15 13:24 | 50.18405 | 7.98445 | 37219 ft | 503 kts | 101° |
| 2026-04-15 13:24 | 50.16788 | 8.09051 | 37216 ft | 503 kts | 101° |
| 2026-04-15 13:25 | 50.15158 | 8.19677 | 37214 ft | 503 kts | 101° |
| 2026-04-15 13:25 | 50.13519 | 8.30286 | 37218 ft | 503 kts | 101° |
| 2026-04-15 13:26 | 50.11872 | 8.40884 | 37212 ft | 503 kts | 101° |
| 2026-04-15 13:26 | 50.10216 | 8.51467 | 37206 ft | 502 kts | 101° |
| 2026-04-15 13:27 | 50.08552 | 8.62031 | 37188 ft | 501 kts | 101° |
| 2026-04-15 13:27 | 50.07168 | 8.70783 | 37183 ft | 501 kts | 101° |
| 2026-04-15 13:28 | 50.05108 | 8.82969 | 37186 ft | 502 kts | 106° |
| 2026-04-15 13:28 | 50.02791 | 8.93201 | 37198 ft | 502 kts | 107° |
| 2026-04-15 13:29 | 50.00811 | 9.01754 | 37196 ft | 502 kts | 107° |
| 2026-04-15 13:29 | 49.98462 | 9.11964 | 37201 ft | 502 kts | 107° |
| 2026-04-15 13:30 | 49.96122 | 9.22194 | 37202 ft | 502 kts | 107° |
| 2026-04-15 13:30 | 49.93782 | 9.32401 | 37204 ft | 502 kts | 107° |
| 2026-04-15 13:31 | 49.91428 | 9.42616 | 37204 ft | 502 kts | 107° |
| 2026-04-15 13:31 | 49.89082 | 9.52741 | 37199 ft | 502 kts | 107° |
| 2026-04-15 13:32 | 49.86713 | 9.62912 | 37211 ft | 501 kts | 106° |
| 2026-04-15 13:32 | 49.84336 | 9.73075 | 37207 ft | 501 kts | 107° |
| 2026-04-15 13:33 | 49.81951 | 9.83221 | 37205 ft | 501 kts | 107° |
| 2026-04-15 13:33 | 49.79560 | 9.93344 | 37210 ft | 500 kts | 107° |
| 2026-04-15 13:34 | 49.77160 | 10.03457 | 37232 ft | 500 kts | 106° |
| 2026-04-15 13:34 | 49.74758 | 10.13536 | 37199 ft | 500 kts | 106° |
| 2026-04-15 13:35 | 49.72351 | 10.23591 | 37224 ft | 499 kts | 107° |
| 2026-04-15 13:35 | 49.69934 | 10.33637 | 37216 ft | 498 kts | 107° |
| 2026-04-15 13:36 | 49.67513 | 10.43652 | 37235 ft | 498 kts | 106° |
| 2026-04-15 13:36 | 49.65087 | 10.53649 | 37209 ft | 498 kts | 106° |
| 2026-04-15 13:37 | 49.62650 | 10.63647 | 37221 ft | 498 kts | 106° |
| 2026-04-15 13:37 | 49.60203 | 10.73635 | 37216 ft | 498 kts | 106° |
| 2026-04-15 13:38 | 49.57748 | 10.83611 | 37237 ft | 498 kts | 106° |
| 2026-04-15 13:38 | 49.55305 | 10.93505 | 37212 ft | 498 kts | 106° |
| 2026-04-15 13:39 | 49.52811 | 11.03524 | 37207 ft | 498 kts | 108° |
| 2026-04-15 13:39 | 49.49817 | 11.13165 | 37215 ft | 500 kts | 113° |
| 2026-04-15 13:40 | 49.46653 | 11.22616 | 37213 ft | 500 kts | 113° |
| 2026-04-15 13:40 | 49.43474 | 11.32137 | 37217 ft | 500 kts | 112° |
| 2026-04-15 13:41 | 49.40314 | 11.41651 | 37205 ft | 500 kts | 112° |
| 2026-04-15 13:41 | 49.37160 | 11.51146 | 37211 ft | 499 kts | 112° |
| 2026-04-15 13:42 | 49.34000 | 11.60620 | 37205 ft | 499 kts | 112° |
| 2026-04-15 13:42 | 49.30833 | 11.70077 | 37212 ft | 498 kts | 112° |
| 2026-04-15 13:43 | 49.27660 | 11.79515 | 37204 ft | 498 kts | 112° |
| 2026-04-15 13:43 | 49.24481 | 11.88937 | 37200 ft | 498 kts | 112° |
| 2026-04-15 13:44 | 49.21293 | 11.98348 | 37214 ft | 498 kts | 113° |
| 2026-04-15 13:44 | 49.18102 | 12.07735 | 37224 ft | 498 kts | 113° |
| 2026-04-15 13:45 | 49.14903 | 12.17109 | 37212 ft | 497 kts | 113° |
| 2026-04-15 13:47 | 49.02095 | 12.54307 | 37210 ft | 494 kts | 113° |
| 2026-04-15 13:47 | 48.98886 | 12.63542 | 37200 ft | 493 kts | 114° |
| 2026-04-15 13:48 | 48.95675 | 12.72751 | 37187 ft | 492 kts | 114° |
| 2026-04-15 13:48 | 48.92462 | 12.81933 | 37203 ft | 492 kts | 114° |
| 2026-04-15 13:49 | 48.89241 | 12.91107 | 37199 ft | 492 kts | 114° |
| 2026-04-15 13:49 | 48.86014 | 13.00265 | 37200 ft | 492 kts | 114° |
| 2026-04-15 13:50 | 48.82776 | 13.09419 | 37201 ft | 492 kts | 114° |
| 2026-04-15 13:50 | 48.79529 | 13.18570 | 37202 ft | 493 kts | 114° |
| 2026-04-15 13:51 | 48.76268 | 13.27723 | 37204 ft | 493 kts | 114° |
| 2026-04-15 13:51 | 48.73003 | 13.36861 | 37224 ft | 493 kts | 114° |
| 2026-04-15 13:52 | 48.69731 | 13.45986 | 37195 ft | 493 kts | 114° |
| 2026-04-15 13:52 | 48.66451 | 13.55106 | 37221 ft | 493 kts | 114° |
| 2026-04-15 13:53 | 48.63247 | 13.64265 | 37211 ft | 492 kts | 112° |
| 2026-04-15 13:53 | 48.60275 | 13.73563 | 37202 ft | 491 kts | 111° |
| 2026-04-15 13:54 | 48.57320 | 13.82882 | 37205 ft | 491 kts | 111° |
| 2026-04-15 13:54 | 48.54347 | 13.92102 | 37199 ft | 492 kts | 112° |
| 2026-04-15 13:55 | 48.51326 | 14.01357 | 37220 ft | 492 kts | 112° |
| 2026-04-15 13:55 | 48.48290 | 14.10603 | 37196 ft | 491 kts | 112° |
| 2026-04-15 13:56 | 48.45255 | 14.19819 | 37193 ft | 491 kts | 112° |
| 2026-04-15 13:56 | 48.42217 | 14.29015 | 37197 ft | 490 kts | 112° |
| 2026-04-15 13:57 | 48.39179 | 14.38188 | 37205 ft | 490 kts | 113° |
| 2026-04-15 13:57 | 48.36131 | 14.47350 | 37189 ft | 490 kts | 113° |
| 2026-04-15 13:58 | 48.33076 | 14.56502 | 37191 ft | 489 kts | 113° |
| 2026-04-15 13:58 | 48.30019 | 14.65628 | 37198 ft | 489 kts | 113° |
| 2026-04-15 13:59 | 48.26953 | 14.74747 | 37211 ft | 489 kts | 114° |
| 2026-04-15 13:59 | 48.23881 | 14.83853 | 37195 ft | 489 kts | 114° |
| 2026-04-15 14:00 | 48.20823 | 14.92883 | 37200 ft | 489 kts | 114° |
| 2026-04-15 14:00 | 48.17737 | 15.01965 | 37201 ft | 489 kts | 114° |
| 2026-04-15 14:01 | 48.13093 | 15.15577 | 37201 ft | 489 kts | 115° |
| 2026-04-15 14:02 | 48.09984 | 15.24648 | 37194 ft | 490 kts | 115° |
| 2026-04-15 14:02 | 48.06866 | 15.33712 | 37202 ft | 490 kts | 115° |
| 2026-04-15 14:03 | 48.03741 | 15.42765 | 37198 ft | 490 kts | 115° |
| 2026-04-15 14:03 | 48.00607 | 15.51814 | 37207 ft | 491 kts | 116° |
| 2026-04-15 14:04 | 47.97459 | 15.60867 | 37197 ft | 491 kts | 116° |
| 2026-04-15 14:04 | 47.94307 | 15.69904 | 37205 ft | 491 kts | 116° |
| 2026-04-15 14:05 | 47.91145 | 15.78941 | 37208 ft | 492 kts | 116° |
| 2026-04-15 14:05 | 47.87989 | 15.87928 | 37212 ft | 493 kts | 116° |
| 2026-04-15 14:06 | 47.84799 | 15.96976 | 37205 ft | 493 kts | 116° |
| 2026-04-15 14:06 | 47.81602 | 16.06015 | 37196 ft | 493 kts | 116° |
| 2026-04-15 14:07 | 47.78401 | 16.15037 | 37207 ft | 493 kts | 116° |
| 2026-04-15 14:07 | 47.75187 | 16.24063 | 37201 ft | 494 kts | 117° |
| 2026-04-15 14:08 | 47.71967 | 16.33074 | 37185 ft | 494 kts | 117° |
| 2026-04-15 14:08 | 47.68740 | 16.42075 | 37204 ft | 494 kts | 117° |
| 2026-04-15 14:09 | 47.65502 | 16.51076 | 37196 ft | 494 kts | 117° |
| 2026-04-15 14:09 | 47.62258 | 16.60063 | 37203 ft | 494 kts | 117° |